Airfield :
LOGIN :

Register | Disclaimer

   EN    FR    IT 

 










Legend :    VFR   Marginal VFR   IFR   Intensive IFR   Very Intensive IFR
Visi :
Ceiling :
>= 8 km
>= 3000ft
5 to 8 km
1000 to 3000 ft
1500m to 5 km
500 to 1000 ft
800 to 1500m
200 to 500 ft
< 800m
< 200 ft
Symbols :   Thunderstorms  Fog  Heavy snow  Heavy precipitations  Wind > 20 kt
SIGMETs :     Misc.  Thunderstorms  Icing  Turbulence  Mountain Waves  Volcanic Ashes







- Airport Elevation : 277 ft
- IATA code : JER
- Download approach charts


EGJJ - Jersey

CURRENT METAR :
  • 170550Z 24012KT 2000 -DZ SCT001 BKN002 18/18 Q1013 TEMPO 0800 BKN000

EXPIRED METARs :
  • 170520Z 24016KT 0900 R26/P1500 -DZ BCFG SCT000 BKN002 18/18 Q1013 TEMPO 0500 BKN000
  • 170450Z 23016KT 2000 -DZ SCT001 BKN003 18/18 Q1013 TEMPO 0600 DZ BKN000
  • 170420Z 21013KT 1500 -DZ SCT001 BKN003 18/17 Q1013 TEMPO 0600 DZ BKN000
  • 170350Z 20012KT 5000 -RA FEW001 BKN003 18/18 Q1013 TEMPO 1200 BKN001
  • 170320Z 21016KT 4000 BR FEW001 BKN003 18/17 Q1013 TEMPO 1200 -RADZ BKN001
  • 170250Z 21016KT 3000 -RA FEW001 BKN003 18/18 Q1013 TEMPO 1200 RA BKN001

TAF TAF EGJJ
Valid from the 17 at 06:00 until the 17 at 15:00 UTC


170503Z 1706/1715 22013KT 3000 BR SCT003 BKN008
TEMPO 1706/1715 0800 -RADZ OVC000
ATIS : +44 1534 498 073
No reported NOTAMs for that airfield.



MET'MAP, your aeronautical weather chart ! - Copyright ORBIFLY December 2007 - Disclaimer

ORBIFLY MET'MAP TEAM :

Programming & Development : Alexandra Zaïnal
Concept & Development : Baudouin d'Aumeries
Co-Development & Prog : Marc-Olivier Méhu
Technical & hardware support : Manuel Goepfert

Contact : metmap@orbifly.com




SOURCES & CREDITS :

   NOAA